Time;durP1;ratioP1;P1;durP2;ratioP2;P2;SDS_P1;SDS_P2;PMS_P1;PMS_P2;Temp;Humidity;BMP_temperature;BMP_pressure;BME280_temperature;BME280_humidity;BME280_pressure;Samples;Min_cycle;Max_cycle;Signal;HPM_P1;HPM_P2
2022/06/11 00:01:14;;;;;;;;;;;;;;;24.18;33.23;100702.19;5094562;28;19917;-71
2022/06/11 00:03:39;;;;;;;;;;;;;;;24.19;33.14;100698.38;5094320;28;20346;-71
2022/06/11 00:06:05;;;;;;;;;;;;;;;24.17;33.26;100706.03;5094687;28;19916;-71
2022/06/11 00:08:30;;;;;;;;;;;;;;;24.18;33.15;100711.22;5094090;28;19916;-72
2022/06/11 00:10:56;;;;;;;;;;;;;;;24.18;33.09;100705.75;5094024;28;19920;-72
2022/06/11 00:13:22;;;;;;;;;;;;;;;24.18;33.07;100702.19;5093255;28;19916;-72
2022/06/11 00:15:47;;;;;;;;;;;;;;;24.17;33.05;100700.56;5093267;28;20393;-72
2022/06/11 00:18:13;;;;;;;;;;;;;;;24.17;33.08;100709.56;5093677;28;19916;-72
2022/06/11 00:20:38;;;;;;;;;;;;;;;24.17;32.78;100704.13;5093058;28;20353;-72
2022/06/11 00:23:03;;;;;;;;;;;;;;;24.16;33.11;100705.22;5093281;28;19916;-72
2022/06/11 00:25:31;;;;;;;;;;;;;;;24.17;32.88;100708.75;5093326;28;19927;-72
2022/06/11 00:27:56;;;;;;;;;;;;;;;24.16;32.65;100715.31;5093467;28;19923;-72
2022/06/11 00:30:22;;;;;;;;;;;;;;;24.16;32.95;100715.31;5093578;28;19916;-72
2022/06/11 00:32:47;;;;;;;;;;;;;;;24.15;32.82;100717.22;5093000;28;20311;-72
2022/06/11 00:35:12;;;;;;;;;;;;;;;24.17;32.54;100716.97;5093095;28;19916;-72
2022/06/11 00:37:38;;;;;;;;;;;;;;;24.14;32.64;100712.84;5093166;28;19920;-72
2022/06/11 00:40:03;;;;;;;;;;;;;;;24.15;32.75;100710.94;5092762;28;19963;-72
2022/06/11 00:42:29;;;;;;;;;;;;;;;24.15;32.70;100719.97;5093817;28;19999;-72
2022/06/11 00:45:12;;;;;;;;;;;;;;;24.15;32.72;100719.97;5076326;28;19938;-72
2022/06/11 00:47:37;;;;;;;;;;;;;;;24.15;32.64;100716.41;5076713;28;19916;-71
2022/06/11 00:50:02;;;;;;;;;;;;;;;24.13;32.59;100722.13;5076434;28;20363;-71
2022/06/11 00:52:28;;;;;;;;;;;;;;;24.14;32.58;100717.50;5076428;28;19962;-71
2022/06/11 00:54:59;;;;;;;;;;;;;;;24.13;32.49;100719.41;5076531;28;19916;-71
2022/06/11 00:57:25;;;;;;;;;;;;;;;24.14;32.58;100722.94;5058350;28;20343;-71
2022/06/11 00:59:53;;;;;;;;;;;;;;;24.14;32.75;100725.69;5076367;28;19923;-72
2022/06/11 01:02:18;;;;;;;;;;;;;;;24.13;32.37;100721.34;5058507;28;19999;-72
2022/06/11 01:04:47;;;;;;;;;;;;;;;24.13;32.56;100713.94;5076116;28;19962;-73
2022/06/11 01:07:15;;;;;;;;;;;;;;;24.12;32.47;100715.03;5058676;28;19917;-72
2022/06/11 01:09:50;;;;;;;;;;;;;;;24.12;32.49;100719.69;5076295;28;19923;-72
2022/06/11 01:12:34;;;;;;;;;;;;;;;24.12;32.42;100711.47;5058231;28;19936;-72
2022/06/11 01:15:19;;;;;;;;;;;;;;;24.10;32.50;100709.03;5075856;28;20438;-72
2022/06/11 01:17:49;;;;;;;;;;;;;;;24.09;32.48;100715.56;5014123;28;19922;-73
2022/06/11 01:20:20;;;;;;;;;;;;;;;24.10;32.65;100714.47;5014186;28;19961;-72
2022/06/11 01:22:51;;;;;;;;;;;;;;;24.10;32.78;100722.66;5014043;28;20020;-73
2022/06/11 01:25:32;;;;;;;;;;;;;;;24.09;32.73;100726.47;5013670;28;19928;-72
2022/06/11 01:28:06;;;;;;;;;;;;;;;24.11;32.50;100720.75;5013743;28;20491;-72
2022/06/11 01:30:34;;;;;;;;;;;;;;;24.11;32.63;100724.31;5013824;28;19948;-72
2022/06/11 01:33:02;;;;;;;;;;;;;;;24.10;32.60;100721.88;4997386;28;19918;-72
2022/06/11 01:35:33;;;;;;;;;;;;;;;24.10;32.40;100719.13;4997448;28;19956;-72
2022/06/11 01:38:06;;;;;;;;;;;;;;;24.10;32.57;100717.22;5013770;28;19926;-72
2022/06/11 01:40:48;;;;;;;;;;;;;;;24.09;32.39;100710.09;5014112;28;20295;-72
2022/06/11 01:43:21;;;;;;;;;;;;;;;24.09;32.48;100710.09;4997300;28;20431;-72
2022/06/11 01:45:47;;;;;;;;;;;;;;;24.08;32.61;100713.94;4997342;28;20296;-72
2022/06/11 01:48:16;;;;;;;;;;;;;;;24.10;32.50;100724.59;5013562;28;19961;-72
2022/06/11 01:50:48;;;;;;;;;;;;;;;24.09;32.64;100717.47;5013470;28;19940;-72
2022/06/11 01:53:17;;;;;;;;;;;;;;;24.09;32.65;100725.66;5013231;28;20305;-72
2022/06/11 01:56:01;;;;;;;;;;;;;;;24.08;32.39;100722.13;5049666;28;19990;-72
2022/06/11 01:58:46;;;;;;;;;;;;;;;24.09;32.66;100720.22;5055347;28;19948;-72
2022/06/11 02:01:26;;;;;;;;;;;;;;;24.08;32.47;100704.94;5013151;28;20016;-72
2022/06/11 02:04:06;;;;;;;;;;;;;;;24.08;32.75;100713.13;5013152;28;19917;-72
2022/06/11 02:06:48;;;;;;;;;;;;;;;24.06;32.45;100705.19;4997041;28;19921;-72
2022/06/11 02:09:19;;;;;;;;;;;;;;;24.06;32.54;100713.41;4996702;28;19921;-72
2022/06/11 02:11:45;;;;;;;;;;;;;;;24.06;32.68;100718.84;5012936;28;19917;-72
2022/06/11 02:14:28;;;;;;;;;;;;;;;24.06;32.80;100710.66;4996793;28;20000;-72
2022/06/11 02:16:54;;;;;;;;;;;;;;;24.07;32.74;100712.28;5012761;28;20436;-71
2022/06/11 02:19:30;;;;;;;;;;;;;;;24.08;32.81;100713.94;4996585;28;20496;-71
2022/06/11 02:21:59;;;;;;;;;;;;;;;24.06;32.94;100699.75;5012715;28;19987;-71
2022/06/11 02:24:28;;;;;;;;;;;;;;;24.06;32.99;100694.28;4996457;28;20372;-72
2022/06/11 02:26:54;;;;;;;;;;;;;;;24.07;32.81;100697.81;4996208;28;19922;-72
2022/06/11 02:29:20;;;;;;;;;;;;;;;24.07;33.14;100700.56;4996335;28;19917;-72
2022/06/11 02:31:50;;;;;;;;;;;;;;;24.07;33.07;100698.63;5012796;28;19917;-72
2022/06/11 02:34:16;;;;;;;;;;;;;;;24.07;32.94;100700.56;4996346;28;19917;-72
2022/06/11 02:37:01;;;;;;;;;;;;;;;24.08;32.95;100694.81;5012860;28;20349;-72
2022/06/11 02:39:26;;;;;;;;;;;;;;;24.07;33.33;100698.63;5054172;28;19928;-72
2022/06/11 02:41:52;;;;;;;;;;;;;;;24.08;33.22;100702.22;5056182;28;20317;-72
2022/06/11 02:44:17;;;;;;;;;;;;;;;24.07;33.14;100703.28;5066531;28;20366;-72
2022/06/11 02:46:43;;;;;;;;;;;;;;;24.07;33.48;100706.00;5074420;28;20256;-72
2022/06/11 02:49:11;;;;;;;;;;;;;;;24.07;33.28;100706.00;5073959;28;19939;-72
2022/06/11 02:51:36;;;;;;;;;;;;;;;24.07;33.30;100712.28;5074200;28;19927;-72
2022/06/11 02:54:01;;;;;;;;;;;;;;;24.07;33.61;100717.75;5074102;28;20291;-72
2022/06/11 02:56:27;;;;;;;;;;;;;;;24.06;33.61;100707.09;5074565;28;20042;-72
2022/06/11 02:58:52;;;;;;;;;;;;;;;24.06;33.54;100710.66;5074248;28;20290;-72
2022/06/11 03:01:17;;;;;;;;;;;;;;;24.06;33.57;100704.38;5073829;28;20259;-72
2022/06/11 03:03:43;;;;;;;;;;;;;;;24.07;33.55;100711.47;5074025;28;19916;-72
2022/06/11 03:06:08;;;;;;;;;;;;;;;24.06;33.94;100718.84;5073397;28;20290;-72
2022/06/11 03:08:33;;;;;;;;;;;;;;;24.07;33.91;100711.47;5074243;28;19916;-72
2022/06/11 03:10:59;;;;;;;;;;;;;;;24.06;33.76;100716.13;5074022;28;20316;-72
2022/06/11 03:13:24;;;;;;;;;;;;;;;24.06;33.82;100704.38;5073716;28;19917;-72
2022/06/11 03:15:50;;;;;;;;;;;;;;;24.06;33.99;100709.81;5074012;28;19923;-72
2022/06/11 03:18:15;;;;;;;;;;;;;;;24.06;34.03;100707.94;5073930;28;19923;-72
2022/06/11 03:20:40;;;;;;;;;;;;;;;24.05;34.13;100714.47;5073906;28;20399;-72
2022/06/11 03:23:06;;;;;;;;;;;;;;;24.05;34.32;100717.19;5073790;28;20007;-72
2022/06/11 03:25:31;;;;;;;;;;;;;;;24.06;34.40;100712.56;5077561;28;20422;-72
2022/06/11 03:27:57;;;;;;;;;;;;;;;24.05;34.54;100713.66;5094129;28;19916;-72
2022/06/11 03:30:22;;;;;;;;;;;;;;;24.05;34.68;100708.19;5075811;28;19924;-72
2022/06/11 03:32:47;;;;;;;;;;;;;;;24.04;34.49;100718.28;5076024;28;19952;-72
2022/06/11 03:35:13;;;;;;;;;;;;;;;24.04;34.79;100718.28;5093932;28;20363;-72
2022/06/11 03:37:39;;;;;;;;;;;;;;;24.05;34.51;100708.19;5094070;28;20389;-72
2022/06/11 03:40:04;;;;;;;;;;;;;;;24.04;34.88;100715.56;5093992;28;20363;-72
2022/06/11 03:42:29;;;;;;;;;;;;;;;24.04;35.02;100715.56;5093644;28;20371;-71
2022/06/11 03:44:55;;;;;;;;;;;;;;;24.04;35.24;100714.75;5093572;28;19923;-72
2022/06/11 03:47:20;;;;;;;;;;;;;;;24.04;35.13;100723.75;5093708;28;20022;-71
2022/06/11 03:49:46;;;;;;;;;;;;;;;24.04;35.13;100723.75;5093684;28;19926;-71
2022/06/11 03:52:11;;;;;;;;;;;;;;;24.03;35.27;100724.84;5093769;28;19916;-71
2022/06/11 03:54:37;;;;;;;;;;;;;;;24.03;35.47;100716.66;5093724;28;19923;-71
2022/06/11 03:57:03;;;;;;;;;;;;;;;24.03;35.38;100722.13;5093780;28;19923;-71
2022/06/11 03:59:29;;;;;;;;;;;;;;;24.04;35.50;100722.94;5093729;28;19931;-71
2022/06/11 04:01:54;;;;;;;;;;;;;;;24.04;35.49;100722.94;5093644;28;19916;-71
2022/06/11 04:04:20;;;;;;;;;;;;;;;24.03;35.49;100724.84;5094057;28;20259;-71
2022/06/11 04:06:49;;;;;;;;;;;;;;;24.03;35.66;100724.84;5093956;28;20433;-71
2022/06/11 04:09:15;;;;;;;;;;;;;;;24.03;35.96;100727.56;5075969;28;19955;-71
2022/06/11 04:11:41;;;;;;;;;;;;;;;24.03;36.13;100722.13;5093973;28;20011;-71
2022/06/11 04:14:06;;;;;;;;;;;;;;;24.03;36.12;100726.78;5094296;28;19966;-71
2022/06/11 04:16:42;;;;;;;;;;;;;;;24.03;35.98;100726.78;5094972;28;20301;-71
2022/06/11 04:19:07;;;;;;;;;;;;;;;24.00;36.37;100722.66;5097951;28;19970;-71
2022/06/11 04:21:33;;;;;;;;;;;;;;;24.03;36.24;100726.78;5097957;28;19920;-71
2022/06/11 04:23:58;;;;;;;;;;;;;;;24.02;36.31;100723.19;5097556;28;20014;-71
2022/06/11 04:26:28;;;;;;;;;;;;;;;24.02;36.50;100725.94;5097140;28;19920;-71
2022/06/11 04:28:55;;;;;;;;;;;;;;;24.02;36.71;100725.94;5097091;28;20366;-71
2022/06/11 04:31:20;;;;;;;;;;;;;;;24.02;36.51;100716.94;5097009;28;19984;-71
2022/06/11 04:33:47;;;;;;;;;;;;;;;24.02;36.73;100716.94;5097765;28;19962;-71
2022/06/11 04:36:13;;;;;;;;;;;;;;;24.02;36.91;100717.72;5096992;28;20019;-71
2022/06/11 04:38:39;;;;;;;;;;;;;;;24.03;37.04;100715.84;5097172;28;20297;-72
2022/06/11 04:41:05;;;;;;;;;;;;;;;24.03;37.03;100722.13;5097075;28;19916;-71
2022/06/11 04:43:30;;;;;;;;;;;;;;;24.03;37.26;100722.13;5096952;28;20381;-71
2022/06/11 04:45:55;;;;;;;;;;;;;;;24.02;37.27;100725.94;5096782;28;20317;-71
2022/06/11 04:48:20;;;;;;;;;;;;;;;24.02;37.27;100725.94;5096898;28;19916;-71
2022/06/11 04:50:46;;;;;;;;;;;;;;;24.03;37.47;100721.31;5096945;28;19927;-71
2022/06/11 04:53:11;;;;;;;;;;;;;;;24.02;37.17;100722.38;5096710;28;19954;-71
2022/06/11 04:55:36;;;;;;;;;;;;;;;24.02;37.37;100731.38;5097274;28;19916;-71
2022/06/11 04:58:02;;;;;;;;;;;;;;;24.02;37.29;100725.94;5096756;28;19922;-71
2022/06/11 05:00:27;;;;;;;;;;;;;;;24.03;37.28;100724.84;5096358;28;20259;-71
2022/06/11 05:02:53;;;;;;;;;;;;;;;24.03;37.34;100726.78;5096804;28;19916;-71
2022/06/11 05:05:18;;;;;;;;;;;;;;;24.03;37.29;100726.78;5096461;28;20386;-71
2022/06/11 05:07:44;;;;;;;;;;;;;;;24.02;37.56;100728.66;5096737;28;20269;-71
2022/06/11 05:10:09;;;;;;;;;;;;;;;24.03;37.47;100727.56;5078413;28;19916;-71
2022/06/11 05:12:34;;;;;;;;;;;;;;;24.04;37.34;100721.00;5078468;28;20282;-72
2022/06/11 05:15:00;;;;;;;;;;;;;;;24.04;37.74;100717.47;5096544;28;20281;-71
2022/06/11 05:17:25;;;;;;;;;;;;;;;24.04;37.48;100731.94;5096318;28;20118;-71
2022/06/11 05:19:50;;;;;;;;;;;;;;;24.03;37.80;100730.31;5096403;28;20323;-71
2022/06/11 05:22:15;;;;;;;;;;;;;;;24.05;37.39;100736.31;5096337;28;19927;-71
2022/06/11 05:24:41;;;;;;;;;;;;;;;24.05;37.51;100725.41;5096212;28;19916;-71
2022/06/11 05:27:07;;;;;;;;;;;;;;;24.05;37.67;100741.78;5096122;28;20370;-71
2022/06/11 05:29:34;;;;;;;;;;;;;;;24.05;37.34;100735.50;5095605;28;19916;-71
2022/06/11 05:32:00;;;;;;;;;;;;;;;24.06;37.43;100740.69;5096158;28;19969;-71
2022/06/11 05:34:25;;;;;;;;;;;;;;;24.07;37.25;100733.31;5095704;28;19916;-71
2022/06/11 05:36:51;;;;;;;;;;;;;;;24.07;37.56;100736.84;5096049;28;19948;-71
2022/06/11 05:39:16;;;;;;;;;;;;;;;24.08;37.44;100745.88;5095710;28;19943;-71
2022/06/11 05:41:42;;;;;;;;;;;;;;;24.07;37.35;100739.59;5095896;28;19919;-70
2022/06/11 05:44:07;;;;;;;;;;;;;;;24.08;37.22;100733.06;5095526;28;19916;-71
2022/06/11 05:46:33;;;;;;;;;;;;;;;24.09;37.50;100734.66;5095709;28;20401;-71
2022/06/11 05:48:59;;;;;;;;;;;;;;;24.08;37.31;100735.78;5095917;28;20313;-71
2022/06/11 05:51:30;;;;;;;;;;;;;;;24.08;37.50;100737.69;5095765;28;19916;-71
2022/06/11 05:53:55;;;;;;;;;;;;;;;24.08;37.44;100730.31;5095808;28;19916;-71
2022/06/11 05:56:21;;;;;;;;;;;;;;;24.07;37.50;100736.84;5095722;28;19923;-72
2022/06/11 05:58:50;;;;;;;;;;;;;;;24.10;37.57;100739.06;5095361;28;20298;-71
2022/06/11 06:01:16;;;;;;;;;;;;;;;24.13;37.35;100738.53;5095593;28;19923;-71
2022/06/11 06:03:41;;;;;;;;;;;;;;;24.12;37.44;100731.41;5077287;28;20278;-71
2022/06/11 06:06:06;;;;;;;;;;;;;;;24.13;37.35;100727.59;5095131;28;19999;-71
2022/06/11 06:08:31;;;;;;;;;;;;;;;24.13;37.36;100732.25;5095150;28;19916;-71
2022/06/11 06:10:57;;;;;;;;;;;;;;;24.13;37.28;100732.25;5095511;28;19916;-71
2022/06/11 06:16:06;;;;;;;;;;;;;;;24.12;37.40;100739.59;5095141;28;20019;-71
2022/06/11 06:18:31;;;;;;;;;;;;;;;24.15;37.53;100741.81;5094908;28;19955;-71
2022/06/11 06:20:56;;;;;;;;;;;;;;;24.15;37.33;100736.34;5095198;28;19970;-71
2022/06/11 06:23:21;;;;;;;;;;;;;;;24.14;37.66;100739.34;5095289;28;19938;-71
2022/06/11 06:25:49;;;;;;;;;;;;;;;24.17;37.57;100736.88;5094833;28;19920;-71
2022/06/11 06:28:14;;;;;;;;;;;;;;;24.18;37.26;100734.97;5095230;28;19920;-71
2022/06/11 06:30:40;;;;;;;;;;;;;;;24.16;37.32;100737.16;5095526;28;20366;-71
2022/06/11 06:33:05;;;;;;;;;;;;;;;24.16;37.71;100735.25;5095031;28;20011;-71
2022/06/11 06:35:30;;;;;;;;;;;;;;;24.17;37.46;100739.63;5094770;28;19928;-71
2022/06/11 06:37:55;;;;;;;;;;;;;;;24.16;37.56;100729.78;5094952;28;19938;-71
2022/06/11 06:40:21;;;;;;;;;;;;;;;24.16;37.55;100734.41;5093858;28;20426;-71
2022/06/11 06:42:46;;;;;;;;;;;;;;;24.16;37.48;100727.06;5094891;28;19935;-71
2022/06/11 06:45:11;;;;;;;;;;;;;;;24.17;37.52;100734.16;5094745;28;19916;-71
2022/06/11 06:47:36;;;;;;;;;;;;;;;24.18;37.36;100722.16;5094594;28;20377;-71
2022/06/11 06:50:02;;;;;;;;;;;;;;;24.17;37.25;100719.69;5094374;28;19999;-71
2022/06/11 06:52:28;;;;;;;;;;;;;;;24.17;37.45;100723.22;5094617;28;19916;-71
2022/06/11 06:54:53;;;;;;;;;;;;;;;24.18;37.44;100724.88;5076401;28;19977;-71
2022/06/11 06:57:18;;;;;;;;;;;;;;;24.15;37.45;100722.69;5094149;28;19962;-71
2022/06/11 06:59:43;;;;;;;;;;;;;;;24.15;37.48;100719.97;5076227;28;19931;-71
2022/06/11 07:02:10;;;;;;;;;;;;;;;24.17;37.44;100723.22;5094521;28;19985;-71
2022/06/11 07:04:35;;;;;;;;;;;;;;;24.17;37.53;100722.41;5094173;28;19955;-71
2022/06/11 07:07:00;;;;;;;;;;;;;;;24.15;37.38;100719.97;5094434;28;19920;-71
2022/06/11 07:09:25;;;;;;;;;;;;;;;24.16;37.54;100726.22;5094567;28;19966;-72
2022/06/11 07:11:51;;;;;;;;;;;;;;;24.15;37.27;100728.16;5094277;28;19917;-71
2022/06/11 07:14:16;;;;;;;;;;;;;;;24.18;37.39;100729.50;5094130;28;20006;-71
2022/06/11 07:16:42;;;;;;;;;;;;;;;24.17;37.31;100723.22;5094234;28;19916;-71
2022/06/11 07:19:11;;;;;;;;;;;;;;;24.17;37.12;100725.16;5093997;28;20389;-70
2022/06/11 07:21:37;;;;;;;;;;;;;;;24.16;37.12;100718.88;5076130;28;19920;-71
2022/06/11 07:24:07;;;;;;;;;;;;;;;24.17;37.19;100725.16;5076114;28;19981;-71
2022/06/11 07:26:36;;;;;;;;;;;;;;;24.16;37.05;100716.16;5081465;28;20006;-70
2022/06/11 07:29:04;;;;;;;;;;;;;;;24.18;37.14;100713.13;5056206;28;19923;-70
2022/06/11 07:31:30;;;;;;;;;;;;;;;24.19;37.23;100710.13;5055825;28;20367;-71
2022/06/11 07:33:55;;;;;;;;;;;;;;;24.17;37.01;100712.31;5073970;28;19924;-71
2022/06/11 07:36:20;;;;;;;;;;;;;;;24.17;37.08;100717.75;5074135;28;20382;-71
2022/06/11 07:38:45;;;;;;;;;;;;;;;24.15;37.18;100714.50;5055664;28;19924;-70
2022/06/11 07:41:10;;;;;;;;;;;;;;;24.17;37.03;100708.75;5073989;28;19943;-70
2022/06/11 07:43:36;;;;;;;;;;;;;;;24.17;36.91;100714.22;5073895;28;20394;-70
2022/06/11 07:46:01;;;;;;;;;;;;;;;24.15;37.18;100703.56;5073525;28;19978;-70
2022/06/11 07:48:26;;;;;;;;;;;;;;;24.13;37.40;100703.03;5073879;28;19923;-71
2022/06/11 07:50:52;;;;;;;;;;;;;;;24.13;37.25;100704.94;5073971;28;20015;-71
2022/06/11 07:53:18;;;;;;;;;;;;;;;24.13;37.40;100703.03;5077716;28;19924;-71
2022/06/11 07:55:44;;;;;;;;;;;;;;;24.15;37.36;100705.50;5060128;28;19916;-70
2022/06/11 07:58:10;;;;;;;;;;;;;;;24.14;37.33;100709.31;5077692;28;20046;-70
2022/06/11 08:00:36;;;;;;;;;;;;;;;24.13;37.44;100710.41;5077939;28;20014;-72
2022/06/11 08:03:01;;;;;;;;;;;;;;;24.13;37.21;100711.22;5077653;28;19916;-71
2022/06/11 08:05:27;;;;;;;;;;;;;;;24.13;37.62;100710.41;5077598;28;19927;-71
2022/06/11 08:07:52;;;;;;;;;;;;;;;24.11;37.75;100707.94;5077304;28;20276;-71
2022/06/11 08:10:17;;;;;;;;;;;;;;;24.12;37.41;100709.56;5059485;28;20003;-72
2022/06/11 08:12:43;;;;;;;;;;;;;;;24.12;37.49;100704.09;5077153;28;19917;-71
2022/06/11 08:15:08;;;;;;;;;;;;;;;24.13;37.67;100708.50;5077452;28;19924;-71
2022/06/11 08:17:34;;;;;;;;;;;;;;;24.12;37.61;100693.19;5077444;28;20013;-71
2022/06/11 08:19:59;;;;;;;;;;;;;;;24.11;37.76;100697.03;5077041;28;20357;-71
2022/06/11 08:22:24;;;;;;;;;;;;;;;24.12;37.89;100701.38;5076930;28;20010;-71
2022/06/11 08:24:50;;;;;;;;;;;;;;;24.13;37.81;100705.75;5076889;28;19917;-71
2022/06/11 08:27:16;;;;;;;;;;;;;;;24.13;37.77;100694.84;5095130;28;20053;-71
2022/06/11 08:29:41;;;;;;;;;;;;;;;24.12;37.89;100692.38;5097129;28;20366;-71
2022/06/11 08:32:07;;;;;;;;;;;;;;;24.13;38.10;100694.84;5097037;28;19958;-71
2022/06/11 08:34:39;;;;;;;;;;;;;;;24.13;38.13;100697.56;5097298;28;19916;-71
2022/06/11 08:37:05;;;;;;;;;;;;;;;24.13;38.14;100692.09;5097374;28;19927;-71
2022/06/11 08:39:30;;;;;;;;;;;;;;;24.12;38.26;100693.19;5097192;28;19924;-71
2022/06/11 08:41:56;;;;;;;;;;;;;;;24.13;38.07;100694.84;5096913;28;20395;-71
2022/06/11 08:44:21;;;;;;;;;;;;;;;24.13;38.31;100689.38;5096716;28;19916;-71
2022/06/11 08:46:50;;;;;;;;;;;;;;;24.13;38.50;100692.09;5097034;28;20007;-71
2022/06/11 08:49:23;;;;;;;;;;;;;;;24.14;38.16;100695.66;5096663;28;20329;-71
2022/06/11 08:51:51;;;;;;;;;;;;;;;24.13;38.54;100699.50;5097304;28;19923;-72
2022/06/11 08:54:18;;;;;;;;;;;;;;;24.14;38.52;100691.00;5097087;28;19920;-72
2022/06/11 08:56:49;;;;;;;;;;;;;;;24.14;38.41;100699.19;5078849;28;19923;-71
2022/06/11 08:59:17;;;;;;;;;;;;;;;24.12;38.38;100682.25;5097205;28;20061;-71
2022/06/11 09:01:46;;;;;;;;;;;;;;;24.12;38.57;100690.44;5096488;28;20362;-71
2022/06/11 09:04:44;;;;;;;;;;;;;;;24.13;38.58;100688.56;5095439;28;20321;-72
2022/06/11 09:07:31;;;;;;;;;;;;;;;24.11;38.32;100685.25;5062254;28;19927;-71
2022/06/11 09:09:56;;;;;;;;;;;;;;;24.10;38.31;100684.44;5078177;28;19923;-71
2022/06/11 09:12:33;;;;;;;;;;;;;;;24.12;38.61;100686.91;5096471;28;19924;-71
2022/06/11 09:15:05;;;;;;;;;;;;;;;24.15;38.47;100687.19;5078428;28;19951;-71
2022/06/11 09:17:49;;;;;;;;;;;;;;;24.16;38.57;100686.13;5078378;28;19916;-72
2022/06/11 09:20:17;;;;;;;;;;;;;;;24.15;38.74;100676.25;5095977;28;20362;-72
2022/06/11 09:23:13;;;;;;;;;;;;;;;24.15;38.61;100676.25;5096351;28;20007;-71
2022/06/11 09:25:42;;;;;;;;;;;;;;;24.15;38.96;100672.72;5082586;28;19920;-71
2022/06/11 09:28:13;;;;;;;;;;;;;;;24.16;38.74;100672.47;5096064;28;19988;-71
2022/06/11 09:30:38;;;;;;;;;;;;;;;24.14;39.10;100663.69;5096029;28;19920;-71
2022/06/11 09:33:06;;;;;;;;;;;;;;;24.15;38.91;100668.06;5096255;28;20416;-71
2022/06/11 09:35:32;;;;;;;;;;;;;;;24.18;39.21;100664.81;5095849;28;19920;-72
2022/06/11 09:38:06;;;;;;;;;;;;;;;24.16;38.98;100667.00;5096114;28;20007;-71
2022/06/11 09:40:42;;;;;;;;;;;;;;;24.15;38.98;100657.16;5095637;28;20366;-71
2022/06/11 09:43:22;;;;;;;;;;;;;;;24.19;38.96;100654.69;5096001;28;19920;-71
2022/06/11 09:45:51;;;;;;;;;;;;;;;24.16;38.99;100656.06;5077482;28;20370;-71
2022/06/11 09:48:24;;;;;;;;;;;;;;;24.16;39.12;100639.69;5095684;28;20274;-71
2022/06/11 09:50:58;;;;;;;;;;;;;;;24.17;39.03;100645.97;5096859;28;19917;-71
2022/06/11 09:53:42;;;;;;;;;;;;;;;24.17;39.26;100645.97;5096692;28;19916;-71
2022/06/11 09:56:29;;;;;;;;;;;;;;;24.18;39.31;100640.22;5095661;28;20370;-71
2022/06/11 09:59:00;;;;;;;;;;;;;;;24.17;39.56;100641.31;5077532;28;20278;-71
2022/06/11 10:01:31;;;;;;;;;;;;;;;24.18;39.36;100636.66;5095177;28;19916;-70
2022/06/11 10:04:06;;;;;;;;;;;;;;;24.18;39.63;100632.03;5095551;28;20393;-70
2022/06/11 10:06:31;;;;;;;;;;;;;;;24.18;39.65;100636.66;5077474;28;19916;-70
2022/06/11 10:08:57;;;;;;;;;;;;;;;24.19;39.42;100633.66;5095252;28;19916;-70
2022/06/11 10:11:36;;;;;;;;;;;;;;;24.18;39.57;100629.31;5095217;28;20007;-71
2022/06/11 10:16:53;;;;;;;;;;;;;;;24.18;39.44;100623.84;5095317;28;19923;-71
2022/06/11 10:19:24;;;;;;;;;;;;;;;24.18;39.54;100623.84;5094823;28;20373;-71
2022/06/11 10:21:56;;;;;;;;;;;;;;;24.20;39.49;100623.56;5095218;28;19916;-71
2022/06/11 10:24:21;;;;;;;;;;;;;;;24.21;39.49;100617.00;5095203;28;19959;-70
2022/06/11 10:26:51;;;;;;;;;;;;;;;24.22;39.40;100615.94;5076631;28;20309;-71
2022/06/11 10:29:29;;;;;;;;;;;;;;;24.24;39.42;100612.94;5076844;28;20058;-70
2022/06/11 10:31:55;;;;;;;;;;;;;;;24.24;39.28;100610.19;5095136;28;19916;-70
2022/06/11 10:34:22;;;;;;;;;;;;;;;24.24;39.28;100610.19;5095591;28;19955;-70
2022/06/11 10:36:47;;;;;;;;;;;;;;;24.24;39.26;100612.94;5095639;28;19931;-70
2022/06/11 10:39:23;;;;;;;;;;;;;;;24.24;39.44;100610.19;5095211;28;19921;-70
2022/06/11 10:41:57;;;;;;;;;;;;;;;24.25;39.29;100614.53;5095189;28;19916;-70
2022/06/11 10:44:42;;;;;;;;;;;;;;;24.23;39.30;100622.19;5076440;28;20382;-70
2022/06/11 10:47:15;;;;;;;;;;;;;;;24.23;39.22;100616.75;5094413;28;20394;-70
2022/06/11 10:49:40;;;;;;;;;;;;;;;24.19;39.26;100617.28;5094748;28;19916;-71
2022/06/11 10:52:15;;;;;;;;;;;;;;;24.21;39.51;100608.00;5094704;28;20525;-71
2022/06/11 10:54:40;;;;;;;;;;;;;;;24.22;39.34;100615.13;5094444;28;19923;-71
2022/06/11 10:57:07;;;;;;;;;;;;;;;24.22;39.04;100605.00;5094295;28;19920;-72
2022/06/11 10:59:32;;;;;;;;;;;;;;;24.23;39.26;100605.81;5076102;28;19924;-71
2022/06/11 11:02:10;;;;;;;;;;;;;;;24.20;39.28;100612.66;5094448;28;19916;-71
2022/06/11 11:04:39;;;;;;;;;;;;;;;24.21;39.43;100608.81;5094485;28;20071;-71
2022/06/11 11:07:09;;;;;;;;;;;;;;;24.19;39.45;100603.63;5094342;28;19942;-71
2022/06/11 11:09:34;;;;;;;;;;;;;;;24.23;39.34;100603.09;5094089;28;19916;-71
2022/06/11 11:12:01;;;;;;;;;;;;;;;24.22;39.41;100605.00;5094377;28;19923;-71
2022/06/11 11:14:28;;;;;;;;;;;;;;;24.22;39.36;100615.94;5094280;28;20282;-71
2022/06/11 11:16:53;;;;;;;;;;;;;;;24.19;39.70;100606.34;5076192;28;19916;-71
2022/06/11 11:19:18;;;;;;;;;;;;;;;24.23;39.36;100608.53;5076061;28;19923;-71
2022/06/11 11:21:48;;;;;;;;;;;;;;;24.21;39.56;100602.53;5094162;28;19916;-71
2022/06/11 11:24:15;;;;;;;;;;;;;;;24.21;39.57;100599.81;5094227;28;19916;-71
2022/06/11 11:26:41;;;;;;;;;;;;;;;24.24;39.76;100599.28;5093255;28;19920;-71
2022/06/11 11:29:09;;;;;;;;;;;;;;;24.24;39.47;100599.28;5093837;28;20337;-72
2022/06/11 11:31:45;;;;;;;;;;;;;;;24.22;39.50;100599.53;5076121;28;19916;-71
2022/06/11 11:34:12;;;;;;;;;;;;;;;24.23;39.59;100594.91;5094143;28;19966;-71
2022/06/11 11:36:37;;;;;;;;;;;;;;;24.23;39.51;100600.34;5094314;28;19963;-71
2022/06/11 11:39:15;;;;;;;;;;;;;;;24.24;39.46;100602.00;5094114;28;20328;-71
2022/06/11 11:42:04;;;;;;;;;;;;;;;24.24;39.53;100597.34;5094154;28;19916;-71
2022/06/11 11:44:33;;;;;;;;;;;;;;;24.24;39.34;100602.81;5085025;28;19917;-71
2022/06/11 11:46:59;;;;;;;;;;;;;;;24.24;39.51;100602.00;5075484;28;19916;-72
2022/06/11 11:49:26;;;;;;;;;;;;;;;24.24;39.40;100608.28;5075916;28;20289;-71
2022/06/11 11:51:51;;;;;;;;;;;;;;;24.26;39.47;100599.81;5093939;28;19987;-70
2022/06/11 11:54:17;;;;;;;;;;;;;;;24.26;39.33;100594.34;5094003;28;19928;-70
2022/06/11 11:56:49;;;;;;;;;;;;;;;24.26;39.31;100597.09;5075422;28;19924;-71
2022/06/11 11:59:15;;;;;;;;;;;;;;;24.24;39.52;100591.88;5093777;28;19916;-71
2022/06/11 12:01:41;;;;;;;;;;;;;;;24.28;39.40;100589.44;5093366;28;19916;-70
2022/06/11 12:04:10;;;;;;;;;;;;;;;24.25;39.42;100584.50;5093488;28;19920;-70
2022/06/11 12:06:36;;;;;;;;;;;;;;;24.24;39.66;100583.69;5075736;28;19923;-71
2022/06/11 12:09:03;;;;;;;;;;;;;;;24.27;39.62;100574.16;5075679;28;19939;-71
2022/06/11 12:11:28;;;;;;;;;;;;;;;24.24;39.61;100585.63;5075563;28;20393;-71
2022/06/11 12:14:00;;;;;;;;;;;;;;;24.25;39.68;100592.69;5093556;28;19916;-71
2022/06/11 12:16:28;;;;;;;;;;;;;;;24.25;39.54;100579.88;5093778;28;19924;-71
2022/06/11 12:18:59;;;;;;;;;;;;;;;24.24;39.54;100585.63;5093530;28;20003;-71
2022/06/11 12:21:25;;;;;;;;;;;;;;;24.25;39.66;100577.16;5076038;28;20004;-71
2022/06/11 12:23:52;;;;;;;;;;;;;;;24.25;39.47;100571.69;5093608;28;19923;-71
2022/06/11 12:26:19;;;;;;;;;;;;;;;24.25;39.49;100568.97;5093005;28;19964;-71
2022/06/11 12:28:46;;;;;;;;;;;;;;;24.25;39.56;100568.13;5075108;28;20412;-71
2022/06/11 12:31:11;;;;;;;;;;;;;;;24.24;39.58;100558.31;5093182;28;19922;-72
2022/06/11 12:33:41;;;;;;;;;;;;;;;24.24;39.17;100563.78;5075118;28;20040;-71
2022/06/11 12:36:10;;;;;;;;;;;;;;;24.27;39.35;100563.22;5093556;28;19967;-71
2022/06/11 12:38:47;;;;;;;;;;;;;;;24.26;39.45;100556.13;5076361;28;19943;-71
2022/06/11 12:41:29;;;;;;;;;;;;;;;24.25;39.04;100557.19;5078640;28;20363;-71
2022/06/11 12:43:55;;;;;;;;;;;;;;;24.25;39.14;100559.94;5096832;28;20378;-71
2022/06/11 12:46:32;;;;;;;;;;;;;;;24.26;38.97;100550.66;5096799;28;19972;-71